Waynesville, Ohio
Current Conditions -  °F | °C
As of 8:34 PM on Sunday 23 Nov 2014 (Local Time) from KMGY Reporting Station
Moderate Rain Moderate Rain  
Wind Chill: 55°   Ceiling: 1500
Heat Index: 55°   Visibility: 4mi
Dew Point: 53°   Wind: 20mph
Humidity: 93%   Direction: 140°SE
Pressure: 29.37"   Gusts: 32mph
Location:  39.53°N, 84.09°W
Report Text: KMGY 240134Z AUTO 14017G28KT 4SM RA BR FEW010 BKN015 OVC040 13/12 A2937 RMK AO2 PK WND 16031/0055 P0022 T01280117
Loading
Personal Weather Stations






























Interactive Weather Map New forecast layout! Learn more

10-Day Weather Forecast

Advertisements
Track Severe Weather on mobile